sensor_id;sensor_type;location;lat;lon;timestamp;P1;durP1;ratioP1;P2;durP2;ratioP2
43413;SDS011;29013;49.676;8.606;2022-07-21T00:03:51;6.64;;;5.85;;
43413;SDS011;29013;49.676;8.606;2022-07-21T00:09:18;7.88;;;5.88;;
43413;SDS011;29013;49.676;8.606;2022-07-21T00:14:45;7.6;;;5.88;;
43413;SDS011;29013;49.676;8.606;2022-07-21T00:20:10;7.37;;;6.1;;
43413;SDS011;29013;49.676;8.606;2022-07-21T00:25:32;8.01;;;6.43;;
43413;SDS011;29013;49.676;8.606;2022-07-21T00:30:58;7.39;;;6.28;;
43413;SDS011;29013;49.676;8.606;2022-07-21T00:36:25;8.87;;;6.75;;
43413;SDS011;29013;49.676;8.606;2022-07-21T00:41:48;7.75;;;6.82;;
43413;SDS011;29013;49.676;8.606;2022-07-21T00:47:13;9.19;;;7.01;;
43413;SDS011;29013;49.676;8.606;2022-07-21T00:52:35;7.89;;;7.34;;
43413;SDS011;29013;49.676;8.606;2022-07-21T00:58:02;9.18;;;7.54;;
43413;SDS011;29013;49.676;8.606;2022-07-21T01:03:23;10.0;;;7.67;;
43413;SDS011;29013;49.676;8.606;2022-07-21T01:08:49;8.48;;;7.39;;
43413;SDS011;29013;49.676;8.606;2022-07-21T01:14:15;10.66;;;7.38;;
43413;SDS011;29013;49.676;8.606;2022-07-21T01:19:42;9.56;;;7.21;;
43413;SDS011;29013;49.676;8.606;2022-07-21T01:25:10;9.73;;;7.26;;
43413;SDS011;29013;49.676;8.606;2022-07-21T01:30:37;10.58;;;8.0;;
43413;SDS011;29013;49.676;8.606;2022-07-21T01:36:06;8.94;;;7.7;;
43413;SDS011;29013;49.676;8.606;2022-07-21T01:41:28;8.95;;;7.62;;
43413;SDS011;29013;49.676;8.606;2022-07-21T01:46:55;8.4;;;7.45;;
43413;SDS011;29013;49.676;8.606;2022-07-21T01:52:22;9.83;;;8.32;;
43413;SDS011;29013;49.676;8.606;2022-07-21T01:57:50;10.3;;;8.51;;
43413;SDS011;29013;49.676;8.606;2022-07-21T02:17:07;11.01;;;8.68;;
43413;SDS011;29013;49.676;8.606;2022-07-21T02:37:07;10.96;;;9.11;;
43413;SDS011;29013;49.676;8.606;2022-07-21T02:42:31;10.65;;;8.59;;
43413;SDS011;29013;49.676;8.606;2022-07-21T02:48:00;11.9;;;9.63;;
43413;SDS011;29013;49.676;8.606;2022-07-21T03:07:07;10.71;;;9.36;;
43413;SDS011;29013;49.676;8.606;2022-07-21T03:12:33;13.78;;;10.07;;
43413;SDS011;29013;49.676;8.606;2022-07-21T03:18:01;11.06;;;9.67;;
43413;SDS011;29013;49.676;8.606;2022-07-21T03:23:30;10.23;;;8.96;;
43413;SDS011;29013;49.676;8.606;2022-07-21T03:28:57;10.47;;;9.05;;
43413;SDS011;29013;49.676;8.606;2022-07-21T03:34:22;8.87;;;8.13;;
43413;SDS011;29013;49.676;8.606;2022-07-21T03:39:51;9.32;;;8.92;;
43413;SDS011;29013;49.676;8.606;2022-07-21T03:45:18;10.3;;;8.44;;
43413;SDS011;29013;49.676;8.606;2022-07-21T03:50:41;11.25;;;8.7;;
43413;SDS011;29013;49.676;8.606;2022-07-21T03:56:07;10.04;;;9.01;;
43413;SDS011;29013;49.676;8.606;2022-07-21T04:01:35;12.36;;;9.32;;
43413;SDS011;29013;49.676;8.606;2022-07-21T04:06:59;10.35;;;9.09;;
43413;SDS011;29013;49.676;8.606;2022-07-21T04:12:25;10.91;;;9.31;;
43413;SDS011;29013;49.676;8.606;2022-07-21T04:17:50;12.34;;;9.85;;
43413;SDS011;29013;49.676;8.606;2022-07-21T04:23:14;10.75;;;9.53;;
43413;SDS011;29013;49.676;8.606;2022-07-21T04:28:42;12.03;;;10.08;;
43413;SDS011;29013;49.676;8.606;2022-07-21T04:34:08;11.54;;;9.87;;
43413;SDS011;29013;49.676;8.606;2022-07-21T04:39:35;11.38;;;10.08;;
43413;SDS011;29013;49.676;8.606;2022-07-21T04:45:00;12.5;;;10.0;;
43413;SDS011;29013;49.676;8.606;2022-07-21T04:50:28;10.45;;;9.69;;
43413;SDS011;29013;49.676;8.606;2022-07-21T04:55:49;10.89;;;9.56;;
43413;SDS011;29013;49.676;8.606;2022-07-21T05:01:17;10.86;;;9.08;;
43413;SDS011;29013;49.676;8.606;2022-07-21T05:06:39;13.83;;;8.1;;
43413;SDS011;29013;49.676;8.606;2022-07-21T05:12:05;7.83;;;6.74;;
43413;SDS011;29013;49.676;8.606;2022-07-21T05:17:31;7.31;;;5.65;;
43413;SDS011;29013;49.676;8.606;2022-07-21T05:22:57;6.59;;;5.79;;
43413;SDS011;29013;49.676;8.606;2022-07-21T05:28:22;5.85;;;4.93;;
43413;SDS011;29013;49.676;8.606;2022-07-21T05:33:50;6.25;;;5.19;;
43413;SDS011;29013;49.676;8.606;2022-07-21T05:39:16;6.45;;;5.53;;
43413;SDS011;29013;49.676;8.606;2022-07-21T05:44:43;6.74;;;5.47;;
43413;SDS011;29013;49.676;8.606;2022-07-21T05:50:11;8.45;;;5.22;;
43413;SDS011;29013;49.676;8.606;2022-07-21T05:55:33;6.33;;;5.48;;
43413;SDS011;29013;49.676;8.606;2022-07-21T06:00:59;6.81;;;5.92;;
43413;SDS011;29013;49.676;8.606;2022-07-21T06:06:26;7.86;;;5.47;;
43413;SDS011;29013;49.676;8.606;2022-07-21T06:11:53;7.15;;;6.28;;
43413;SDS011;29013;49.676;8.606;2022-07-21T06:17:21;6.23;;;5.76;;
43413;SDS011;29013;49.676;8.606;2022-07-21T06:22:46;6.19;;;5.33;;
43413;SDS011;29013;49.676;8.606;2022-07-21T06:28:12;7.87;;;6.2;;
43413;SDS011;29013;49.676;8.606;2022-07-21T06:33:38;7.36;;;5.87;;
43413;SDS011;29013;49.676;8.606;2022-07-21T06:39:01;4.82;;;4.82;;
43413;SDS011;29013;49.676;8.606;2022-07-21T06:44:28;5.0;;;4.78;;
43413;SDS011;29013;49.676;8.606;2022-07-21T06:49:55;6.07;;;4.96;;
43413;SDS011;29013;49.676;8.606;2022-07-21T06:55:21;5.34;;;4.72;;
43413;SDS011;29013;49.676;8.606;2022-07-21T07:00:50;4.49;;;4.84;;
43413;SDS011;29013;49.676;8.606;2022-07-21T07:06:16;7.46;;;4.12;;
43413;SDS011;29013;49.676;8.606;2022-07-21T07:11:40;4.83;;;3.86;;
43413;SDS011;29013;49.676;8.606;2022-07-21T07:17:09;5.32;;;4.98;;
43413;SDS011;29013;49.676;8.606;2022-07-21T07:22:35;5.55;;;4.13;;
43413;SDS011;29013;49.676;8.606;2022-07-21T07:28:00;5.1;;;4.5;;
43413;SDS011;29013;49.676;8.606;2022-07-21T07:33:25;4.34;;;3.99;;
43413;SDS011;29013;49.676;8.606;2022-07-21T07:38:52;3.82;;;3.5;;
43413;SDS011;29013;49.676;8.606;2022-07-21T07:44:16;6.29;;;4.46;;
43413;SDS011;29013;49.676;8.606;2022-07-21T07:49:42;5.31;;;3.67;;
43413;SDS011;29013;49.676;8.606;2022-07-21T07:55:10;4.38;;;3.67;;
43413;SDS011;29013;49.676;8.606;2022-07-21T08:00:35;5.7;;;4.33;;
43413;SDS011;29013;49.676;8.606;2022-07-21T08:06:03;4.07;;;3.61;;
43413;SDS011;29013;49.676;8.606;2022-07-21T08:11:31;4.71;;;4.06;;
43413;SDS011;29013;49.676;8.606;2022-07-21T08:16:59;5.06;;;3.89;;
43413;SDS011;29013;49.676;8.606;2022-07-21T08:22:24;5.27;;;4.16;;
43413;SDS011;29013;49.676;8.606;2022-07-21T08:27:50;5.42;;;3.89;;
43413;SDS011;29013;49.676;8.606;2022-07-21T08:33:14;4.56;;;3.93;;
43413;SDS011;29013;49.676;8.606;2022-07-21T08:38:38;5.53;;;3.78;;
43413;SDS011;29013;49.676;8.606;2022-07-21T08:44:04;4.63;;;4.16;;
43413;SDS011;29013;49.676;8.606;2022-07-21T08:49:32;4.09;;;4.06;;
43413;SDS011;29013;49.676;8.606;2022-07-21T08:55:04;4.76;;;4.19;;
43413;SDS011;29013;49.676;8.606;2022-07-21T09:00:32;6.33;;;4.27;;
43413;SDS011;29013;49.676;8.606;2022-07-21T09:06:03;4.0;;;4.0;;
43413;SDS011;29013;49.676;8.606;2022-07-21T09:11:28;3.93;;;3.88;;
43413;SDS011;29013;49.676;8.606;2022-07-21T09:16:54;4.4;;;4.21;;
43413;SDS011;29013;49.676;8.606;2022-07-21T09:22:19;5.08;;;4.46;;
43413;SDS011;29013;49.676;8.606;2022-07-21T09:27:47;5.38;;;4.61;;
43413;SDS011;29013;49.676;8.606;2022-07-21T09:33:19;5.19;;;4.53;;
43413;SDS011;29013;49.676;8.606;2022-07-21T09:38:51;4.96;;;4.6;;
43413;SDS011;29013;49.676;8.606;2022-07-21T09:44:21;5.84;;;4.29;;
43413;SDS011;29013;49.676;8.606;2022-07-21T09:49:42;5.08;;;4.19;;
43413;SDS011;29013;49.676;8.606;2022-07-21T09:55:09;4.29;;;4.58;;
43413;SDS011;29013;49.676;8.606;2022-07-21T10:00:36;6.18;;;4.81;;
43413;SDS011;29013;49.676;8.606;2022-07-21T10:06:03;5.21;;;4.15;;
43413;SDS011;29013;49.676;8.606;2022-07-21T10:11:28;4.64;;;4.13;;
43413;SDS011;29013;49.676;8.606;2022-07-21T10:16:54;4.76;;;4.5;;
43413;SDS011;29013;49.676;8.606;2022-07-21T10:22:23;5.56;;;4.13;;
43413;SDS011;29013;49.676;8.606;2022-07-21T10:39:19;3.78;;;3.19;;
43413;SDS011;29013;49.676;8.606;2022-07-21T10:44:43;3.34;;;3.05;;
43413;SDS011;29013;49.676;8.606;2022-07-21T10:50:11;5.76;;;3.43;;
43413;SDS011;29013;49.676;8.606;2022-07-21T10:55:45;4.04;;;3.3;;
43413;SDS011;29013;49.676;8.606;2022-07-21T11:01:18;5.28;;;3.29;;
43413;SDS011;29013;49.676;8.606;2022-07-21T11:06:41;13.43;;;4.02;;
43413;SDS011;29013;49.676;8.606;2022-07-21T11:12:07;4.46;;;3.46;;
43413;SDS011;29013;49.676;8.606;2022-07-21T11:17:33;4.12;;;3.33;;
43413;SDS011;29013;49.676;8.606;2022-07-21T11:23:01;6.43;;;3.4;;
43413;SDS011;29013;49.676;8.606;2022-07-21T11:28:28;7.09;;;4.0;;
43413;SDS011;29013;49.676;8.606;2022-07-21T11:33:57;4.61;;;3.37;;
43413;SDS011;29013;49.676;8.606;2022-07-21T11:39:23;3.89;;;3.0;;
43413;SDS011;29013;49.676;8.606;2022-07-21T11:44:51;4.83;;;3.46;;
43413;SDS011;29013;49.676;8.606;2022-07-21T11:50:19;5.35;;;3.71;;
43413;SDS011;29013;49.676;8.606;2022-07-21T11:55:47;6.26;;;4.02;;
43413;SDS011;29013;49.676;8.606;2022-07-21T12:01:15;5.35;;;3.79;;
43413;SDS011;29013;49.676;8.606;2022-07-21T12:06:43;5.0;;;3.56;;
43413;SDS011;29013;49.676;8.606;2022-07-21T12:12:09;6.63;;;3.73;;
43413;SDS011;29013;49.676;8.606;2022-07-21T12:17:36;5.67;;;4.1;;
43413;SDS011;29013;49.676;8.606;2022-07-21T12:23:01;5.66;;;4.14;;
43413;SDS011;29013;49.676;8.606;2022-07-21T12:34:14;5.4;;;3.85;;
43413;SDS011;29013;49.676;8.606;2022-07-21T12:39:41;6.76;;;4.43;;
43413;SDS011;29013;49.676;8.606;2022-07-21T12:45:14;7.85;;;4.28;;
43413;SDS011;29013;49.676;8.606;2022-07-21T12:50:40;4.55;;;3.89;;
43413;SDS011;29013;49.676;8.606;2022-07-21T12:56:08;5.26;;;4.03;;
43413;SDS011;29013;49.676;8.606;2022-07-21T13:01:36;5.13;;;4.74;;
43413;SDS011;29013;49.676;8.606;2022-07-21T13:07:02;5.37;;;4.37;;
43413;SDS011;29013;49.676;8.606;2022-07-21T13:12:27;4.18;;;3.95;;
43413;SDS011;29013;49.676;8.606;2022-07-21T13:17:54;5.1;;;4.09;;
43413;SDS011;29013;49.676;8.606;2022-07-21T13:23:17;7.36;;;4.66;;
43413;SDS011;29013;49.676;8.606;2022-07-21T13:28:39;5.37;;;4.12;;
43413;SDS011;29013;49.676;8.606;2022-07-21T13:34:07;7.57;;;4.35;;
43413;SDS011;29013;49.676;8.606;2022-07-21T13:39:35;5.86;;;4.33;;
43413;SDS011;29013;49.676;8.606;2022-07-21T13:45:03;5.0;;;3.8;;
43413;SDS011;29013;49.676;8.606;2022-07-21T13:50:27;6.47;;;4.29;;
43413;SDS011;29013;49.676;8.606;2022-07-21T13:55:52;6.37;;;4.13;;
43413;SDS011;29013;49.676;8.606;2022-07-21T14:01:14;6.03;;;4.36;;
43413;SDS011;29013;49.676;8.606;2022-07-21T14:06:40;5.38;;;4.31;;
43413;SDS011;29013;49.676;8.606;2022-07-21T14:12:07;7.16;;;4.43;;
43413;SDS011;29013;49.676;8.606;2022-07-21T14:17:34;6.62;;;4.04;;
43413;SDS011;29013;49.676;8.606;2022-07-21T14:22:56;6.81;;;4.37;;
43413;SDS011;29013;49.676;8.606;2022-07-21T14:28:23;6.08;;;4.15;;
43413;SDS011;29013;49.676;8.606;2022-07-21T14:33:46;6.84;;;4.29;;
43413;SDS011;29013;49.676;8.606;2022-07-21T14:39:15;5.87;;;4.2;;
43413;SDS011;29013;49.676;8.606;2022-07-21T14:44:42;6.53;;;4.12;;
43413;SDS011;29013;49.676;8.606;2022-07-21T14:50:10;5.47;;;3.9;;
43413;SDS011;29013;49.676;8.606;2022-07-21T14:55:39;5.09;;;3.81;;
43413;SDS011;29013;49.676;8.606;2022-07-21T15:01:06;7.27;;;4.05;;
43413;SDS011;29013;49.676;8.606;2022-07-21T15:06:32;4.33;;;3.77;;
43413;SDS011;29013;49.676;8.606;2022-07-21T15:11:58;5.34;;;4.06;;
43413;SDS011;29013;49.676;8.606;2022-07-21T15:17:23;4.18;;;3.53;;
43413;SDS011;29013;49.676;8.606;2022-07-21T15:22:50;4.94;;;3.54;;
43413;SDS011;29013;49.676;8.606;2022-07-21T15:28:16;5.75;;;4.31;;
43413;SDS011;29013;49.676;8.606;2022-07-21T15:33:43;6.54;;;4.11;;
43413;SDS011;29013;49.676;8.606;2022-07-21T15:39:11;5.81;;;4.0;;
43413;SDS011;29013;49.676;8.606;2022-07-21T15:44:36;6.4;;;3.78;;
43413;SDS011;29013;49.676;8.606;2022-07-21T16:12:09;3.73;;;3.33;;
43413;SDS011;29013;49.676;8.606;2022-07-21T16:17:28;6.37;;;3.72;;
43413;SDS011;29013;49.676;8.606;2022-07-21T16:22:52;4.36;;;3.3;;
43413;SDS011;29013;49.676;8.606;2022-07-21T16:28:13;4.78;;;3.87;;
43413;SDS011;29013;49.676;8.606;2022-07-21T16:33:41;5.18;;;4.22;;
43413;SDS011;29013;49.676;8.606;2022-07-21T16:39:03;5.21;;;3.85;;
43413;SDS011;29013;49.676;8.606;2022-07-21T16:44:30;6.46;;;3.88;;
43413;SDS011;29013;49.676;8.606;2022-07-21T16:49:58;6.47;;;3.81;;
43413;SDS011;29013;49.676;8.606;2022-07-21T16:55:22;4.99;;;3.74;;
43413;SDS011;29013;49.676;8.606;2022-07-21T17:00:49;5.85;;;3.86;;
43413;SDS011;29013;49.676;8.606;2022-07-21T17:06:16;18.66;;;4.54;;
43413;SDS011;29013;49.676;8.606;2022-07-21T17:11:43;6.65;;;3.67;;
43413;SDS011;29013;49.676;8.606;2022-07-21T17:17:10;8.24;;;4.2;;
43413;SDS011;29013;49.676;8.606;2022-07-21T17:22:37;5.88;;;3.68;;
43413;SDS011;29013;49.676;8.606;2022-07-21T17:28:06;4.59;;;3.34;;
43413;SDS011;29013;49.676;8.606;2022-07-21T17:33:33;6.75;;;3.75;;
43413;SDS011;29013;49.676;8.606;2022-07-21T17:38:55;4.59;;;3.79;;
43413;SDS011;29013;49.676;8.606;2022-07-21T17:44:22;3.78;;;3.31;;
43413;SDS011;29013;49.676;8.606;2022-07-21T17:49:49;3.67;;;3.06;;
43413;SDS011;29013;49.676;8.606;2022-07-21T17:55:16;3.95;;;3.05;;
43413;SDS011;29013;49.676;8.606;2022-07-21T18:00:42;4.49;;;3.37;;
43413;SDS011;29013;49.676;8.606;2022-07-21T18:06:04;5.42;;;3.48;;
43413;SDS011;29013;49.676;8.606;2022-07-21T18:11:31;4.9;;;3.68;;
43413;SDS011;29013;49.676;8.606;2022-07-21T18:16:53;3.47;;;3.18;;
43413;SDS011;29013;49.676;8.606;2022-07-21T18:22:20;4.56;;;3.1;;
43413;SDS011;29013;49.676;8.606;2022-07-21T18:27:45;4.02;;;3.18;;
43413;SDS011;29013;49.676;8.606;2022-07-21T18:33:11;5.09;;;3.05;;
43413;SDS011;29013;49.676;8.606;2022-07-21T18:38:36;5.68;;;3.29;;
43413;SDS011;29013;49.676;8.606;2022-07-21T18:44:00;4.01;;;2.93;;
43413;SDS011;29013;49.676;8.606;2022-07-21T18:49:28;3.85;;;2.85;;
43413;SDS011;29013;49.676;8.606;2022-07-21T18:54:54;7.58;;;3.55;;
43413;SDS011;29013;49.676;8.606;2022-07-21T19:00:22;4.45;;;2.99;;
43413;SDS011;29013;49.676;8.606;2022-07-21T19:05:49;5.1;;;3.26;;
43413;SDS011;29013;49.676;8.606;2022-07-21T19:11:15;5.83;;;3.27;;
43413;SDS011;29013;49.676;8.606;2022-07-21T19:16:42;5.15;;;3.34;;
43413;SDS011;29013;49.676;8.606;2022-07-21T19:22:09;3.51;;;3.07;;
43413;SDS011;29013;49.676;8.606;2022-07-21T19:27:36;5.03;;;3.71;;
43413;SDS011;29013;49.676;8.606;2022-07-21T19:33:03;5.35;;;3.48;;
43413;SDS011;29013;49.676;8.606;2022-07-21T19:38:26;6.07;;;3.19;;
43413;SDS011;29013;49.676;8.606;2022-07-21T19:43:51;5.42;;;3.24;;
43413;SDS011;29013;49.676;8.606;2022-07-21T19:49:14;5.32;;;3.53;;
43413;SDS011;29013;49.676;8.606;2022-07-21T19:54:36;8.87;;;4.19;;
43413;SDS011;29013;49.676;8.606;2022-07-21T19:59:58;6.79;;;3.99;;
43413;SDS011;29013;49.676;8.606;2022-07-21T20:05:20;6.2;;;3.9;;
43413;SDS011;29013;49.676;8.606;2022-07-21T20:10:47;7.55;;;4.14;;
43413;SDS011;29013;49.676;8.606;2022-07-21T20:16:13;5.24;;;3.88;;
43413;SDS011;29013;49.676;8.606;2022-07-21T20:21:35;4.34;;;3.71;;
43413;SDS011;29013;49.676;8.606;2022-07-21T20:26:56;7.01;;;4.2;;
43413;SDS011;29013;49.676;8.606;2022-07-21T20:32:19;4.71;;;4.03;;
43413;SDS011;29013;49.676;8.606;2022-07-21T20:37:44;5.13;;;3.83;;
43413;SDS011;29013;49.676;8.606;2022-07-21T20:43:10;4.57;;;3.87;;
43413;SDS011;29013;49.676;8.606;2022-07-21T20:48:35;4.33;;;4.05;;
43413;SDS011;29013;49.676;8.606;2022-07-21T20:53:57;4.62;;;4.13;;
43413;SDS011;29013;49.676;8.606;2022-07-21T20:59:24;5.04;;;4.2;;
43413;SDS011;29013;49.676;8.606;2022-07-21T21:04:50;6.27;;;4.31;;
43413;SDS011;29013;49.676;8.606;2022-07-21T21:10:16;5.67;;;4.55;;
43413;SDS011;29013;49.676;8.606;2022-07-21T21:15:43;5.26;;;4.2;;
43413;SDS011;29013;49.676;8.606;2022-07-21T21:21:10;6.32;;;4.98;;
43413;SDS011;29013;49.676;8.606;2022-07-21T21:26:38;5.55;;;4.66;;
43413;SDS011;29013;49.676;8.606;2022-07-21T21:32:06;6.54;;;4.55;;
43413;SDS011;29013;49.676;8.606;2022-07-21T21:37:36;5.43;;;4.81;;
43413;SDS011;29013;49.676;8.606;2022-07-21T21:43:04;6.81;;;4.99;;
43413;SDS011;29013;49.676;8.606;2022-07-21T21:48:26;8.45;;;5.48;;
43413;SDS011;29013;49.676;8.606;2022-07-21T21:53:48;5.19;;;4.58;;
43413;SDS011;29013;49.676;8.606;2022-07-21T21:59:10;5.06;;;4.8;;
43413;SDS011;29013;49.676;8.606;2022-07-21T22:04:32;6.13;;;4.25;;
43413;SDS011;29013;49.676;8.606;2022-07-21T22:09:53;4.13;;;4.3;;
43413;SDS011;29013;49.676;8.606;2022-07-21T22:15:16;4.62;;;4.25;;
43413;SDS011;29013;49.676;8.606;2022-07-21T22:20:38;6.14;;;4.64;;
43413;SDS011;29013;49.676;8.606;2022-07-21T22:26:02;4.77;;;3.44;;
43413;SDS011;29013;49.676;8.606;2022-07-21T22:31:24;5.1;;;3.9;;
43413;SDS011;29013;49.676;8.606;2022-07-21T22:36:46;4.07;;;3.74;;
43413;SDS011;29013;49.676;8.606;2022-07-21T22:42:08;4.28;;;3.84;;
43413;SDS011;29013;49.676;8.606;2022-07-21T22:47:30;4.59;;;4.07;;
43413;SDS011;29013;49.676;8.606;2022-07-21T22:52:53;4.7;;;3.81;;
43413;SDS011;29013;49.676;8.606;2022-07-21T22:58:15;3.63;;;3.39;;
43413;SDS011;29013;49.676;8.606;2022-07-21T23:03:39;4.6;;;3.81;;
43413;SDS011;29013;49.676;8.606;2022-07-21T23:09:05;4.86;;;3.75;;
43413;SDS011;29013;49.676;8.606;2022-07-21T23:14:27;3.83;;;3.5;;
43413;SDS011;29013;49.676;8.606;2022-07-21T23:19:59;5.04;;;3.54;;
43413;SDS011;29013;49.676;8.606;2022-07-21T23:25:22;4.9;;;3.4;;
43413;SDS011;29013;49.676;8.606;2022-07-21T23:30:49;4.41;;;3.14;;
43413;SDS011;29013;49.676;8.606;2022-07-21T23:36:10;3.29;;;3.31;;
43413;SDS011;29013;49.676;8.606;2022-07-21T23:41:34;5.15;;;3.53;;
43413;SDS011;29013;49.676;8.606;2022-07-21T23:47:00;4.94;;;3.23;;
43413;SDS011;29013;49.676;8.606;2022-07-21T23:52:28;3.76;;;3.38;;
43413;SDS011;29013;49.676;8.606;2022-07-21T23:57:55;4.95;;;3.53;;
